Klondike, Illinois
Current Conditions -  °F | °C
As of 10:15 PM on Tuesday 27 Jan 2015 (Local Time) from KCIR Reporting Station
Clear Clear  
Wind Chill: 31°   Ceiling: Unl
Heat Index: 35°   Visibility: 10mi
Dew Point: 29°   Wind: 5mph
Humidity: 81%   Direction: 50°NE
Pressure: 30.25"   Gusts: NA
Location:  37.048°N, 89.2036°W
Report Text: KCIR 280415Z AUTO 05004KT 10SM CLR 02/M01 A3025 RMK AO2 T00161014
Loading
Personal Weather Stations






























Interactive Weather Map New forecast layout! Learn more

10-Day Weather Forecast

Advertisements
Track Severe Weather on mobile